createdAt,value
2023-03-15T00:00:02.476Z,1.48
2023-03-15T00:02:30.759Z,1.57
2023-03-15T00:05:06.892Z,1.47
2023-03-15T00:07:35.315Z,1.26
2023-03-15T00:10:03.819Z,1.25
2023-03-15T00:12:33.296Z,1.27
2023-03-15T00:15:01.148Z,1.28
2023-03-15T00:17:29.036Z,1.41
2023-03-15T00:19:56.827Z,1.53
2023-03-15T00:22:25.852Z,1.62
2023-03-15T00:24:54.922Z,1.69
2023-03-15T00:27:22.660Z,1.67
2023-03-15T00:29:50.224Z,1.71
2023-03-15T00:32:18.318Z,1.75
2023-03-15T00:34:46.516Z,1.78
2023-03-15T00:37:17.096Z,1.82
2023-03-15T00:39:47.521Z,1.71
2023-03-15T00:42:15.595Z,1.82
2023-03-15T00:44:45.124Z,1.79
2023-03-15T00:47:14.784Z,1.77
2023-03-15T00:49:49.978Z,1.84
2023-03-15T00:52:18.983Z,1.77
2023-03-15T00:54:53.005Z,1.78
2023-03-15T00:57:20.909Z,1.72
2023-03-15T00:59:49.142Z,1.73
2023-03-15T01:02:16.789Z,1.67
2023-03-15T01:04:44.706Z,1.74
2023-03-15T01:07:12.470Z,1.71
2023-03-15T01:09:40.382Z,1.76
2023-03-15T01:12:09.993Z,1.77
2023-03-15T01:14:37.798Z,1.74
2023-03-15T01:17:06.694Z,1.74
2023-03-15T01:19:34.799Z,1.77
2023-03-15T01:22:03.450Z,1.71
2023-03-15T01:24:31.620Z,1.72
2023-03-15T01:26:59.363Z,1.78
2023-03-15T01:29:28.758Z,1.70
2023-03-15T01:31:56.535Z,1.73
2023-03-15T01:34:24.259Z,1.68
2023-03-15T01:36:55.780Z,1.61
2023-03-15T01:39:23.503Z,1.56
2023-03-15T01:41:51.068Z,1.53
2023-03-15T01:44:20.421Z,1.46
2023-03-15T01:46:49.618Z,1.31
2023-03-15T01:49:22.789Z,1.38
2023-03-15T01:51:55.717Z,1.29
2023-03-15T01:54:28.584Z,1.22
2023-03-15T01:57:06.593Z,1.14
2023-03-15T01:59:35.980Z,1.18
2023-03-15T02:02:06.515Z,1.05
2023-03-15T02:04:38.313Z,1.09
2023-03-15T02:07:06.924Z,1.16
2023-03-15T02:09:44.288Z,1.23
2023-03-15T02:12:12.631Z,1.22
2023-03-15T02:14:41.634Z,1.19
2023-03-15T02:17:10.925Z,1.14
2023-03-15T02:19:49.362Z,1.10
2023-03-15T02:22:29.542Z,1.17
2023-03-15T02:25:04.104Z,1.12
2023-03-15T02:27:35.853Z,1.15
2023-03-15T02:30:05.373Z,1.05
2023-03-15T02:32:34.052Z,1.07
2023-03-15T02:35:02.377Z,1.04
2023-03-15T02:37:30.450Z,1.05
2023-03-15T02:39:58.405Z,1.05
2023-03-15T02:42:27.020Z,1.10
2023-03-15T02:44:57.600Z,1.08
2023-03-15T02:47:30.610Z,1.03
2023-03-15T02:50:00.233Z,1.02
2023-03-15T02:52:27.792Z,0.94
2023-03-15T02:54:55.616Z,0.85
2023-03-15T02:57:25.078Z,0.74
2023-03-15T02:59:53.113Z,0.72
2023-03-15T03:02:22.286Z,0.56
2023-03-15T03:04:50.184Z,0.52
2023-03-15T03:07:18.055Z,0.65
2023-03-15T03:09:46.684Z,0.58
2023-03-15T03:12:16.906Z,0.44
2023-03-15T03:14:45.792Z,0.26
2023-03-15T03:17:13.438Z,0.33
2023-03-15T03:19:42.907Z,0.41
2023-03-15T03:22:12.896Z,0.40
2023-03-15T03:24:40.725Z,0.41
2023-03-15T03:27:08.837Z,0.35
2023-03-15T03:29:36.892Z,0.14
2023-03-15T03:32:04.902Z,-0.00
2023-03-15T03:34:32.686Z,0.32
2023-03-15T03:37:02.373Z,0.24
2023-03-15T03:39:30.546Z,0.42
2023-03-15T03:41:58.475Z,0.37
2023-03-15T03:44:26.279Z,0.39
2023-03-15T03:46:54.119Z,0.52
2023-03-15T03:49:21.680Z,0.47
2023-03-15T03:51:49.287Z,0.40
2023-03-15T03:54:18.543Z,-0.00
2023-03-15T03:56:46.317Z,0.02
2023-03-15T03:59:14.079Z,0.13
2023-03-15T04:01:41.817Z,0.51
2023-03-15T04:04:09.748Z,0.64
2023-03-15T04:06:37.545Z,0.77
2023-03-15T04:09:05.324Z,0.90
2023-03-15T04:11:37.064Z,1.09
2023-03-15T04:14:04.799Z,1.19
2023-03-15T04:16:32.511Z,1.34
2023-03-15T04:19:04.371Z,1.40
2023-03-15T04:21:32.222Z,1.59
2023-03-15T04:24:00.128Z,1.62
2023-03-15T04:26:28.072Z,1.65
2023-03-15T04:28:59.181Z,1.84
2023-03-15T04:31:26.899Z,1.92
2023-03-15T04:33:55.014Z,1.97
2023-03-15T04:36:23.916Z,2.15
2023-03-15T04:38:54.075Z,2.22
2023-03-15T04:41:21.853Z,2.25
2023-03-15T04:43:50.083Z,2.22
2023-03-15T04:46:19.137Z,2.09
2023-03-15T04:48:46.901Z,2.21
2023-03-15T04:51:14.853Z,2.41
2023-03-15T04:53:42.389Z,2.58
2023-03-15T04:56:10.345Z,2.61
2023-03-15T04:58:38.880Z,2.90
2023-03-15T05:01:09.117Z,3.03
2023-03-15T05:03:38.928Z,3.22
2023-03-15T05:06:07.091Z,3.34
2023-03-15T05:08:35.191Z,3.38
2023-03-15T05:11:03.096Z,3.46
2023-03-15T05:13:31.210Z,3.57
2023-03-15T05:15:58.951Z,3.65
2023-03-15T05:18:26.770Z,3.86
2023-03-15T05:20:55.904Z,4.06
2023-03-15T05:23:25.670Z,4.20
2023-03-15T05:25:56.315Z,4.31
2023-03-15T05:28:26.330Z,4.46
2023-03-15T05:30:57.951Z,5.07
2023-03-15T05:33:27.313Z,5.65
2023-03-15T05:35:56.533Z,6.35
2023-03-15T05:38:24.753Z,6.86
2023-03-15T05:40:53.619Z,7.08
2023-03-15T05:43:21.659Z,7.95
2023-03-15T05:45:49.497Z,8.53
2023-03-15T05:48:17.736Z,9.19
2023-03-15T05:50:45.293Z,9.73
2023-03-15T05:53:14.570Z,10.07
2023-03-15T05:55:42.440Z,10.40
2023-03-15T05:58:11.466Z,10.83
2023-03-15T06:00:39.198Z,11.20
2023-03-15T06:03:06.938Z,11.39
2023-03-15T06:05:35.601Z,11.55
2023-03-15T06:08:03.784Z,11.42
2023-03-15T06:10:33.702Z,11.46
2023-03-15T06:13:02.284Z,10.71
2023-03-15T06:15:30.370Z,10.31
2023-03-15T06:18:01.056Z,10.44
2023-03-15T06:20:29.072Z,10.17
2023-03-15T06:22:56.920Z,11.08
2023-03-15T06:25:24.547Z,11.71
2023-03-15T06:27:54.031Z,12.27
2023-03-15T06:30:26.048Z,11.66
2023-03-15T06:32:55.799Z,12.07
2023-03-15T06:35:23.421Z,11.36
2023-03-15T06:37:53.027Z,10.50
2023-03-15T06:40:21.085Z,9.97
2023-03-15T06:42:48.902Z,9.69
2023-03-15T06:45:18.586Z,9.53
2023-03-15T06:47:46.522Z,9.29
2023-03-15T06:50:14.137Z,9.19
2023-03-15T06:52:43.263Z,9.17
2023-03-15T06:55:11.014Z,8.97
2023-03-15T06:57:41.862Z,8.77
2023-03-15T07:00:11.870Z,8.72
2023-03-15T07:02:42.744Z,8.48
2023-03-15T07:05:10.779Z,8.71
2023-03-15T07:07:41.144Z,9.01
2023-03-15T07:10:10.044Z,9.17
2023-03-15T07:12:38.194Z,9.71
2023-03-15T07:15:07.254Z,10.32
2023-03-15T07:17:35.984Z,10.55
2023-03-15T07:20:06.126Z,10.71
2023-03-15T07:22:35.030Z,10.64
2023-03-15T07:25:03.247Z,10.40
2023-03-15T07:27:31.792Z,10.19
2023-03-15T07:30:01.698Z,10.11
2023-03-15T07:32:29.456Z,9.87
2023-03-15T07:34:58.005Z,9.40
2023-03-15T07:37:27.490Z,9.45
2023-03-15T07:39:55.112Z,9.45
2023-03-15T07:42:23.033Z,9.29
2023-03-15T07:44:50.701Z,9.21
2023-03-15T07:47:24.450Z,9.41
2023-03-15T07:49:52.178Z,9.47
2023-03-15T07:52:20.194Z,9.47
2023-03-15T07:54:50.353Z,9.17
2023-03-15T07:57:18.573Z,9.31
2023-03-15T07:59:48.604Z,9.38
2023-03-15T08:02:16.502Z,9.49
2023-03-15T08:04:44.558Z,9.31
2023-03-15T08:07:12.456Z,9.34
2023-03-15T08:09:40.335Z,9.25
2023-03-15T08:12:09.961Z,9.19
2023-03-15T08:14:37.541Z,9.05
2023-03-15T08:17:09.119Z,9.14
2023-03-15T08:19:36.764Z,9.18
2023-03-15T08:22:04.840Z,9.14
2023-03-15T08:24:32.994Z,9.21
2023-03-15T08:27:00.681Z,9.25
2023-03-15T08:29:29.945Z,9.31
2023-03-15T08:31:58.188Z,9.27
2023-03-15T08:34:26.114Z,9.28
2023-03-15T08:36:57.117Z,9.23
2023-03-15T08:39:24.841Z,9.27
2023-03-15T08:41:52.842Z,9.12
2023-03-15T08:44:20.470Z,9.26
2023-03-15T08:46:50.277Z,9.31
2023-03-15T08:49:18.503Z,9.43
2023-03-15T08:51:46.808Z,9.37
2023-03-15T08:54:14.561Z,9.34
2023-03-15T08:56:42.717Z,9.48
2023-03-15T08:59:12.852Z,9.70
2023-03-15T09:01:42.587Z,9.95
2023-03-15T09:04:11.862Z,10.37
2023-03-15T09:06:39.870Z,10.76
2023-03-15T09:09:07.846Z,10.84
2023-03-15T09:11:36.369Z,10.87
2023-03-15T09:14:04.405Z,11.21
2023-03-15T09:16:34.349Z,11.32
2023-03-15T09:19:02.812Z,11.14
2023-03-15T09:21:32.183Z,11.35
2023-03-15T09:24:00.796Z,11.90
2023-03-15T09:26:28.637Z,11.84
2023-03-15T09:28:56.618Z,11.71
2023-03-15T09:31:24.465Z,11.23
2023-03-15T09:33:52.093Z,11.13
2023-03-15T09:36:21.055Z,10.93
2023-03-15T09:38:51.326Z,11.28
2023-03-15T09:41:31.203Z,11.18
2023-03-15T09:44:29.368Z,10.92
2023-03-15T09:47:09.827Z,10.54
2023-03-15T09:49:45.458Z,10.36
2023-03-15T09:52:24.487Z,10.35
2023-03-15T09:54:58.265Z,10.27
2023-03-15T09:57:35.694Z,10.54
2023-03-15T10:00:11.818Z,10.87
2023-03-15T10:02:45.678Z,10.79
2023-03-15T10:05:21.044Z,10.67
2023-03-15T10:07:49.207Z,10.78
2023-03-15T10:10:22.416Z,10.87
2023-03-15T10:13:04.074Z,10.68
2023-03-15T10:15:43.466Z,10.51
2023-03-15T10:18:24.173Z,10.63
2023-03-15T10:21:02.104Z,10.49
2023-03-15T10:23:39.495Z,10.72
2023-03-15T10:26:14.219Z,10.92
2023-03-15T10:28:44.893Z,10.52
2023-03-15T10:31:21.579Z,10.19
2023-03-15T10:33:55.607Z,10.35
2023-03-15T10:36:25.636Z,10.58
2023-03-15T10:38:54.694Z,10.54
2023-03-15T10:41:36.678Z,10.82
2023-03-15T10:44:13.911Z,11.16
2023-03-15T10:46:42.304Z,11.23
2023-03-15T10:49:12.832Z,11.33
2023-03-15T10:51:44.336Z,11.34
2023-03-15T10:54:15.360Z,11.20
2023-03-15T10:56:46.874Z,11.22
2023-03-15T10:59:20.431Z,11.09
2023-03-15T11:01:49.584Z,11.01
2023-03-15T11:04:19.517Z,10.91
2023-03-15T11:06:50.106Z,10.85
2023-03-15T11:09:27.507Z,10.60
2023-03-15T11:11:59.417Z,10.47
2023-03-15T11:14:33.733Z,10.59
2023-03-15T11:17:02.436Z,10.39
2023-03-15T11:19:32.787Z,10.24
2023-03-15T11:22:10.909Z,10.01
2023-03-15T11:24:40.134Z,9.85
2023-03-15T11:27:14.225Z,9.69
2023-03-15T11:29:47.604Z,9.70
2023-03-15T11:32:19.192Z,9.82
2023-03-15T11:34:55.574Z,9.80
2023-03-15T11:37:27.488Z,9.83
2023-03-15T11:40:10.535Z,9.59
2023-03-15T11:42:48.430Z,9.48
2023-03-15T11:45:21.922Z,9.31
2023-03-15T11:47:54.176Z,9.33
2023-03-15T11:50:22.040Z,9.30
2023-03-15T11:52:50.629Z,9.10
2023-03-15T11:55:23.225Z,8.97
2023-03-15T11:57:53.409Z,9.00
2023-03-15T12:00:40.218Z,8.85
2023-03-15T12:03:35.424Z,8.77
2023-03-15T12:06:33.324Z,8.60
2023-03-15T12:09:01.521Z,8.44
2023-03-15T12:11:42.161Z,8.60
2023-03-15T12:14:28.547Z,8.54
2023-03-15T12:17:37.967Z,8.49
2023-03-15T12:20:17.547Z,8.45
2023-03-15T12:22:51.014Z,8.46
2023-03-15T12:25:23.163Z,8.43
2023-03-15T12:27:54.516Z,8.36
2023-03-15T12:30:30.546Z,8.37
2023-03-15T12:32:58.627Z,8.38
2023-03-15T12:35:32.454Z,8.31
2023-03-15T12:38:00.522Z,8.38
2023-03-15T12:40:50.394Z,8.33
2023-03-15T12:43:35.989Z,8.39
2023-03-15T12:46:05.298Z,8.38
2023-03-15T12:49:06.502Z,8.47
2023-03-15T12:51:56.045Z,8.65
2023-03-15T12:54:30.536Z,8.67
2023-03-15T12:57:00.487Z,8.72
2023-03-15T12:59:33.141Z,8.76
2023-03-15T13:02:13.310Z,8.78
2023-03-15T13:04:46.877Z,8.92
2023-03-15T13:07:28.824Z,8.98
2023-03-15T13:10:13.224Z,9.05
2023-03-15T13:12:46.464Z,9.17
2023-03-15T13:15:19.692Z,9.26
2023-03-15T13:17:51.197Z,9.14
2023-03-15T13:20:38.578Z,9.11
2023-03-15T13:23:14.312Z,9.15
2023-03-15T13:25:53.612Z,9.14
2023-03-15T13:28:25.600Z,9.16
2023-03-15T13:30:55.581Z,9.15
2023-03-15T13:33:26.999Z,9.30
2023-03-15T13:35:57.691Z,9.12
2023-03-15T13:38:28.927Z,9.17
2023-03-15T13:40:59.225Z,9.13
2023-03-15T13:43:30.326Z,9.02
2023-03-15T13:45:58.809Z,8.90
2023-03-15T13:48:29.522Z,8.84
2023-03-15T13:51:04.744Z,8.74
2023-03-15T13:53:48.595Z,8.70
2023-03-15T13:56:19.758Z,8.48
2023-03-15T13:58:49.486Z,8.51
2023-03-15T14:01:18.036Z,8.49
2023-03-15T14:03:56.369Z,8.45
2023-03-15T14:06:26.692Z,8.43
2023-03-15T14:09:00.177Z,8.37
2023-03-15T14:11:35.015Z,8.39
2023-03-15T14:14:13.698Z,8.28
2023-03-15T14:17:01.254Z,8.27
2023-03-15T14:19:34.415Z,8.24
2023-03-15T14:22:04.272Z,8.14
2023-03-15T14:24:37.005Z,8.13
2023-03-15T14:27:08.077Z,8.21
2023-03-15T14:29:38.753Z,8.20
2023-03-15T14:32:28.379Z,8.21
2023-03-15T14:35:02.974Z,8.23
2023-03-15T14:37:36.627Z,8.20
2023-03-15T14:40:13.293Z,8.24
2023-03-15T14:42:42.942Z,8.16
2023-03-15T14:45:12.461Z,8.09
2023-03-15T14:47:56.915Z,8.03
2023-03-15T14:50:33.450Z,8.11
2023-03-15T14:53:02.007Z,8.06
2023-03-15T14:55:31.847Z,8.04
2023-03-15T14:58:00.522Z,7.95
2023-03-15T15:00:33.246Z,8.05
2023-03-15T15:03:02.346Z,8.02
2023-03-15T15:05:34.964Z,7.97
2023-03-15T15:08:06.078Z,8.02
2023-03-15T15:10:34.191Z,7.98
2023-03-15T15:13:06.473Z,7.96
2023-03-15T15:15:51.197Z,7.91
2023-03-15T15:18:24.350Z,7.90
2023-03-15T15:20:55.426Z,7.90
2023-03-15T15:23:27.469Z,7.88
2023-03-15T15:25:56.760Z,7.87
2023-03-15T15:28:34.541Z,7.82
2023-03-15T15:31:05.692Z,7.75
2023-03-15T15:33:35.316Z,7.79
2023-03-15T15:36:10.375Z,7.76
2023-03-15T15:38:38.949Z,7.74
2023-03-15T15:41:13.311Z,7.64
2023-03-15T15:43:41.829Z,7.57
2023-03-15T15:46:11.749Z,7.63
2023-03-15T15:48:40.831Z,7.68
2023-03-15T15:51:25.502Z,7.68
2023-03-15T15:53:53.886Z,7.63
2023-03-15T15:56:29.713Z,7.65
2023-03-15T15:58:57.782Z,7.66
2023-03-15T16:01:25.647Z,7.66
2023-03-15T16:03:53.268Z,7.57
2023-03-15T16:06:23.198Z,7.62
2023-03-15T16:08:53.016Z,7.60
2023-03-15T16:11:24.976Z,7.63
2023-03-15T16:13:54.028Z,7.57
2023-03-15T16:16:22.281Z,7.55
2023-03-15T16:18:49.968Z,7.59
2023-03-15T16:21:27.208Z,7.58
2023-03-15T16:23:58.574Z,7.55
2023-03-15T16:26:27.130Z,7.53
2023-03-15T16:28:54.774Z,7.55
2023-03-15T16:31:24.286Z,7.52
2023-03-15T16:33:53.957Z,7.55
2023-03-15T16:36:24.106Z,7.51
2023-03-15T16:38:52.435Z,7.56
2023-03-15T16:41:20.452Z,7.53
2023-03-15T16:43:49.609Z,7.47
2023-03-15T16:46:17.847Z,7.50
2023-03-15T16:48:48.287Z,7.52
2023-03-15T16:51:16.876Z,7.46
2023-03-15T16:53:49.288Z,7.48
2023-03-15T16:56:17.439Z,7.43
2023-03-15T16:58:50.032Z,7.45
2023-03-15T17:01:18.643Z,7.47
2023-03-15T17:03:46.420Z,7.47
2023-03-15T17:06:19.367Z,7.36
2023-03-15T17:08:49.693Z,7.43
2023-03-15T17:11:18.069Z,7.45
2023-03-15T17:13:46.037Z,7.35
2023-03-15T17:16:15.459Z,7.45
2023-03-15T17:18:43.806Z,7.47
2023-03-15T17:21:13.103Z,7.34
2023-03-15T17:23:41.402Z,7.29
2023-03-15T17:26:13.220Z,7.40
2023-03-15T17:28:43.626Z,7.32
2023-03-15T17:31:24.677Z,7.36
2023-03-15T17:33:53.312Z,7.32
2023-03-15T17:36:23.545Z,7.36
2023-03-15T17:38:55.755Z,7.36
2023-03-15T17:41:28.633Z,7.37
2023-03-15T17:43:56.295Z,7.37
2023-03-15T17:46:25.752Z,7.37
2023-03-15T17:48:54.485Z,7.31
2023-03-15T17:51:24.003Z,7.25
2023-03-15T17:53:52.821Z,7.36
2023-03-15T17:56:21.199Z,7.34
2023-03-15T17:58:50.478Z,7.33
2023-03-15T18:01:21.800Z,7.23
2023-03-15T18:03:51.405Z,7.34
2023-03-15T18:06:21.323Z,7.31
2023-03-15T18:08:56.681Z,7.31
2023-03-15T18:11:28.855Z,7.32
2023-03-15T18:13:58.535Z,7.33
2023-03-15T18:16:26.754Z,7.35
2023-03-15T18:18:56.367Z,7.33
2023-03-15T18:21:26.706Z,7.27
2023-03-15T18:23:55.668Z,7.26
2023-03-15T18:26:24.356Z,7.35
2023-03-15T18:28:52.155Z,7.34
2023-03-15T18:31:25.854Z,7.27
2023-03-15T18:34:28.005Z,7.32
2023-03-15T18:36:56.370Z,7.34
2023-03-15T18:39:24.157Z,7.34
2023-03-15T18:41:51.896Z,7.28
2023-03-15T18:44:19.740Z,7.28
2023-03-15T18:46:48.773Z,7.29
2023-03-15T18:49:18.221Z,7.27
2023-03-15T18:51:45.902Z,7.29
2023-03-15T18:54:16.300Z,7.28
2023-03-15T18:56:44.364Z,7.28
2023-03-15T18:59:12.298Z,7.27
2023-03-15T19:01:40.551Z,7.28
2023-03-15T19:04:10.187Z,7.24
2023-03-15T19:06:43.305Z,7.26
2023-03-15T19:09:11.133Z,7.26
2023-03-15T19:11:38.782Z,7.25
2023-03-15T19:14:12.326Z,7.25
2023-03-15T19:16:42.749Z,7.27
2023-03-15T19:19:11.758Z,7.17
2023-03-15T19:21:42.159Z,7.25
2023-03-15T19:24:10.335Z,7.25
2023-03-15T19:26:39.294Z,7.15
2023-03-15T19:29:09.661Z,7.15
2023-03-15T19:31:37.434Z,7.23
2023-03-15T19:34:07.398Z,7.21
2023-03-15T19:36:36.596Z,7.17
2023-03-15T19:39:04.511Z,7.25
2023-03-15T19:41:34.164Z,7.21
2023-03-15T19:44:02.004Z,7.19
2023-03-15T19:46:30.123Z,7.23
2023-03-15T19:48:57.779Z,7.26
2023-03-15T19:51:25.954Z,7.14
2023-03-15T19:53:56.378Z,7.14
2023-03-15T19:56:25.834Z,7.23
2023-03-15T19:58:55.874Z,7.23
2023-03-15T20:01:23.877Z,7.21
2023-03-15T20:03:51.544Z,7.20
2023-03-15T20:06:19.786Z,7.21
2023-03-15T20:08:47.347Z,7.20
2023-03-15T20:11:17.520Z,7.14
2023-03-15T20:13:47.495Z,7.19
2023-03-15T20:16:15.163Z,7.17
2023-03-15T20:18:45.421Z,7.13
2023-03-15T20:21:13.394Z,7.20
2023-03-15T20:23:40.974Z,7.09
2023-03-15T20:26:11.318Z,7.18
2023-03-15T20:28:41.342Z,7.15
2023-03-15T20:31:11.819Z,7.03
2023-03-15T20:33:42.101Z,7.14
2023-03-15T20:36:10.039Z,7.08
2023-03-15T20:38:37.786Z,7.15
2023-03-15T20:41:07.020Z,7.03
2023-03-15T20:43:41.100Z,7.16
2023-03-15T20:46:10.033Z,7.19
2023-03-15T20:48:37.717Z,7.18
2023-03-15T20:51:05.809Z,7.15
2023-03-15T20:53:36.196Z,7.16
2023-03-15T20:56:05.602Z,7.18
2023-03-15T20:58:33.400Z,7.18
2023-03-15T21:01:08.214Z,7.11
2023-03-15T21:03:36.759Z,7.18
2023-03-15T21:06:08.457Z,7.11
2023-03-15T21:08:35.880Z,7.21
2023-03-15T21:11:05.011Z,7.14
2023-03-15T21:13:32.944Z,7.21
2023-03-15T21:16:02.087Z,7.17
2023-03-15T21:18:33.749Z,7.18
2023-03-15T21:21:03.738Z,7.17
2023-03-15T21:23:34.756Z,7.17
2023-03-15T21:26:05.879Z,7.21
2023-03-15T21:28:42.377Z,7.27
2023-03-15T21:31:11.033Z,7.26
2023-03-15T21:33:40.086Z,7.27
2023-03-15T21:36:08.542Z,7.23
2023-03-15T21:38:37.096Z,7.23
2023-03-15T21:41:08.959Z,7.24
2023-03-15T21:43:37.803Z,7.18
2023-03-15T21:46:07.448Z,7.13
2023-03-15T21:48:36.516Z,7.13
2023-03-15T21:51:06.528Z,7.12
2023-03-15T21:53:35.724Z,7.22
2023-03-15T21:56:04.477Z,7.20
2023-03-15T21:58:33.612Z,7.23
2023-03-15T22:01:05.976Z,7.24
2023-03-15T22:03:35.943Z,7.20
2023-03-15T22:06:05.989Z,7.18
2023-03-15T22:08:33.878Z,7.17
2023-03-15T22:11:01.478Z,7.22
2023-03-15T22:13:29.540Z,7.22
2023-03-15T22:15:57.434Z,7.19
2023-03-15T22:18:25.344Z,7.23
2023-03-15T22:20:55.388Z,7.15
2023-03-15T22:23:24.929Z,7.11
2023-03-15T22:25:55.814Z,7.14
2023-03-15T22:28:24.080Z,7.02
2023-03-15T22:30:52.174Z,7.13
2023-03-15T22:33:24.747Z,7.05
2023-03-15T22:35:56.192Z,7.10
2023-03-15T22:38:26.336Z,7.10
2023-03-15T22:41:00.842Z,7.13
2023-03-15T22:43:28.661Z,7.14
2023-03-15T22:45:58.241Z,7.15
2023-03-15T22:48:26.006Z,7.07
2023-03-15T22:50:58.429Z,7.14
2023-03-15T22:53:28.321Z,7.18
2023-03-15T22:55:56.682Z,7.14
2023-03-15T22:58:25.189Z,7.05
2023-03-15T23:00:52.928Z,7.02
2023-03-15T23:03:22.633Z,7.07
2023-03-15T23:05:50.929Z,7.10
2023-03-15T23:08:18.762Z,7.08
2023-03-15T23:10:49.268Z,6.98
2023-03-15T23:13:17.190Z,6.92
2023-03-15T23:15:51.673Z,7.09
2023-03-15T23:18:19.456Z,7.08
2023-03-15T23:20:47.429Z,7.04
2023-03-15T23:23:15.455Z,7.09
2023-03-15T23:25:43.402Z,7.08
2023-03-15T23:28:12.462Z,7.04
2023-03-15T23:30:40.637Z,7.04
2023-03-15T23:33:08.698Z,7.07
2023-03-15T23:35:37.194Z,7.07
2023-03-15T23:38:04.901Z,7.08
2023-03-15T23:40:32.687Z,7.05
2023-03-15T23:43:00.838Z,7.07
2023-03-15T23:45:30.209Z,7.05
2023-03-15T23:48:05.916Z,7.03
2023-03-15T23:50:34.225Z,7.06
2023-03-15T23:53:02.044Z,7.05
2023-03-15T23:55:30.165Z,7.04
2023-03-15T23:57:57.835Z,7.04
